sensor_id;sensor_type;location;lat;lon;timestamp;temperature;humidity
45619;DHT22;31343;47.520;19.144;2023-05-16T00:04:03;13.40;99.90
45619;DHT22;31343;47.520;19.144;2023-05-16T00:06:54;14.30;99.90
45619;DHT22;31343;47.520;19.144;2023-05-16T00:09:20;14.20;99.90
45619;DHT22;31343;47.520;19.144;2023-05-16T00:33:44;14.30;99.90
45619;DHT22;31343;47.520;19.144;2023-05-16T00:39:58;14.10;99.90
45619;DHT22;31343;47.520;19.144;2023-05-16T00:47:35;14.20;99.90
45619;DHT22;31343;47.520;19.144;2023-05-16T00:55:12;14.20;99.90
45619;DHT22;31343;47.520;19.144;2023-05-16T00:57:39;14.10;99.90
45619;DHT22;31343;47.520;19.144;2023-05-16T01:03:06;14.10;99.90
45619;DHT22;31343;47.520;19.144;2023-05-16T01:30:21;13.90;99.90
45619;DHT22;31343;47.520;19.144;2023-05-16T01:52:00;14.00;99.90
45619;DHT22;31343;47.520;19.144;2023-05-16T02:22:56;13.80;99.90
45619;DHT22;31343;47.520;19.144;2023-05-16T02:28:01;13.90;99.90
45619;DHT22;31343;47.520;19.144;2023-05-16T02:33:25;13.80;99.90
45619;DHT22;31343;47.520;19.144;2023-05-16T02:41:02;13.70;99.90
45619;DHT22;31343;47.520;19.144;2023-05-16T02:48:39;13.60;99.90
45619;DHT22;31343;47.520;19.144;2023-05-16T03:16:20;13.60;99.90
45619;DHT22;31343;47.520;19.144;2023-05-16T03:36:54;13.50;99.90
45619;DHT22;31343;47.520;19.144;2023-05-16T03:46:00;13.50;99.90
45619;DHT22;31343;47.520;19.144;2023-05-16T03:48:27;13.60;99.90
45619;DHT22;31343;47.520;19.144;2023-05-16T03:56:04;13.60;99.90
45619;DHT22;31343;47.520;19.144;2023-05-16T04:11:27;13.80;99.90
45619;DHT22;31343;47.520;19.144;2023-05-16T04:16:28;13.80;99.90
45619;DHT22;31343;47.520;19.144;2023-05-16T04:18:55;13.70;99.90
45619;DHT22;31343;47.520;19.144;2023-05-16T04:21:26;13.80;99.90
45619;DHT22;31343;47.520;19.144;2023-05-16T04:26:28;13.90;99.90
45619;DHT22;31343;47.520;19.144;2023-05-16T04:28:54;13.90;99.90
45619;DHT22;31343;47.520;19.144;2023-05-16T04:36:46;13.90;99.90
45619;DHT22;31343;47.520;19.144;2023-05-16T04:39:12;13.90;99.90
45619;DHT22;31343;47.520;19.144;2023-05-16T04:55:32;14.20;99.90
45619;DHT22;31343;47.520;19.144;2023-05-16T04:58:04;13.50;99.90
45619;DHT22;31343;47.520;19.144;2023-05-16T05:03:50;14.20;99.90
45619;DHT22;31343;47.520;19.144;2023-05-16T05:06:41;14.20;99.90
45619;DHT22;31343;47.520;19.144;2023-05-16T05:09:39;14.10;99.90
45619;DHT22;31343;47.520;19.144;2023-05-16T05:12:08;14.10;99.90
45619;DHT22;31343;47.520;19.144;2023-05-16T05:18:34;14.10;99.90
45619;DHT22;31343;47.520;19.144;2023-05-16T05:23:36;14.20;99.90
45619;DHT22;31343;47.520;19.144;2023-05-16T05:26:31;13.50;99.90
45619;DHT22;31343;47.520;19.144;2023-05-16T05:31:38;14.20;99.90
45619;DHT22;31343;47.520;19.144;2023-05-16T05:42:40;14.30;99.90
45619;DHT22;31343;47.520;19.144;2023-05-16T05:45:29;14.30;99.90
45619;DHT22;31343;47.520;19.144;2023-05-16T05:48:05;14.30;99.90
45619;DHT22;31343;47.520;19.144;2023-05-16T05:50:59;12.90;99.90
45619;DHT22;31343;47.520;19.144;2023-05-16T05:54:37;14.40;99.90
45619;DHT22;31343;47.520;19.144;2023-05-16T05:57:19;14.30;99.90
45619;DHT22;31343;47.520;19.144;2023-05-16T06:00:13;14.40;99.90
45619;DHT22;31343;47.520;19.144;2023-05-16T06:02:55;14.40;99.90
45619;DHT22;31343;47.520;19.144;2023-05-16T06:05:32;14.40;99.90
45619;DHT22;31343;47.520;19.144;2023-05-16T06:08:21;14.40;99.90
45619;DHT22;31343;47.520;19.144;2023-05-16T06:11:09;13.60;99.90
45619;DHT22;31343;47.520;19.144;2023-05-16T06:14:15;14.40;99.90
45619;DHT22;31343;47.520;19.144;2023-05-16T06:19:58;14.60;99.90
45619;DHT22;31343;47.520;19.144;2023-05-16T06:22:25;14.50;99.90
45619;DHT22;31343;47.520;19.144;2023-05-16T06:24:56;14.60;99.90
45619;DHT22;31343;47.520;19.144;2023-05-16T06:27:31;14.60;99.90
45619;DHT22;31343;47.520;19.144;2023-05-16T06:30:06;14.70;99.90
45619;DHT22;31343;47.520;19.144;2023-05-16T06:32:44;14.50;99.90
45619;DHT22;31343;47.520;19.144;2023-05-16T06:35:11;14.60;99.90
45619;DHT22;31343;47.520;19.144;2023-05-16T06:37:37;14.50;99.90
45619;DHT22;31343;47.520;19.144;2023-05-16T06:43:29;14.30;99.90
45619;DHT22;31343;47.520;19.144;2023-05-16T06:45:55;14.20;99.90
45619;DHT22;31343;47.520;19.144;2023-05-16T06:50:56;14.60;99.90
45619;DHT22;31343;47.520;19.144;2023-05-16T06:53:26;14.50;99.90
45619;DHT22;31343;47.520;19.144;2023-05-16T06:55:53;14.50;99.90
45619;DHT22;31343;47.520;19.144;2023-05-16T06:58:26;14.50;99.90
45619;DHT22;31343;47.520;19.144;2023-05-16T07:04:20;14.50;99.90
45619;DHT22;31343;47.520;19.144;2023-05-16T07:10:44;14.10;99.90
45619;DHT22;31343;47.520;19.144;2023-05-16T07:15:49;14.50;99.90
45619;DHT22;31343;47.520;19.144;2023-05-16T07:21:36;14.40;99.90
45619;DHT22;31343;47.520;19.144;2023-05-16T07:24:08;13.70;99.90
45619;DHT22;31343;47.520;19.144;2023-05-16T07:26:39;14.50;99.90
45619;DHT22;31343;47.520;19.144;2023-05-16T07:29:14;14.50;99.90
45619;DHT22;31343;47.520;19.144;2023-05-16T07:31:46;14.50;99.90
45619;DHT22;31343;47.520;19.144;2023-05-16T07:34:36;14.50;99.90
45619;DHT22;31343;47.520;19.144;2023-05-16T07:37:10;14.60;99.90
45619;DHT22;31343;47.520;19.144;2023-05-16T07:39:40;13.80;99.90
45619;DHT22;31343;47.520;19.144;2023-05-16T07:42:07;14.60;99.90
45619;DHT22;31343;47.520;19.144;2023-05-16T07:44:36;14.60;99.90
45619;DHT22;31343;47.520;19.144;2023-05-16T07:47:02;14.60;99.90
45619;DHT22;31343;47.520;19.144;2023-05-16T07:49:34;14.70;99.90
45619;DHT22;31343;47.520;19.144;2023-05-16T07:52:02;14.70;99.90
45619;DHT22;31343;47.520;19.144;2023-05-16T07:54:33;14.70;99.90
45619;DHT22;31343;47.520;19.144;2023-05-16T07:57:04;14.70;99.90
45619;DHT22;31343;47.520;19.144;2023-05-16T08:00:13;14.80;99.90
45619;DHT22;31343;47.520;19.144;2023-05-16T08:03:15;14.80;99.90
45619;DHT22;31343;47.520;19.144;2023-05-16T08:06:13;14.90;99.90
45619;DHT22;31343;47.520;19.144;2023-05-16T08:09:39;14.90;99.90
45619;DHT22;31343;47.520;19.144;2023-05-16T08:12:35;15.00;99.90
45619;DHT22;31343;47.520;19.144;2023-05-16T08:15:02;15.00;99.90
45619;DHT22;31343;47.520;19.144;2023-05-16T08:17:47;15.10;99.90
45619;DHT22;31343;47.520;19.144;2023-05-16T08:20:35;15.10;99.90
45619;DHT22;31343;47.520;19.144;2023-05-16T08:29:37;15.20;99.90
45619;DHT22;31343;47.520;19.144;2023-05-16T08:46:33;15.00;99.90
45619;DHT22;31343;47.520;19.144;2023-05-16T08:49:20;15.00;99.90
45619;DHT22;31343;47.520;19.144;2023-05-16T08:51:47;15.00;99.90
45619;DHT22;31343;47.520;19.144;2023-05-16T08:54:15;15.10;99.90
45619;DHT22;31343;47.520;19.144;2023-05-16T08:57:05;14.30;99.90
45619;DHT22;31343;47.520;19.144;2023-05-16T08:59:34;15.20;99.90
45619;DHT22;31343;47.520;19.144;2023-05-16T09:02:20;15.00;99.90
45619;DHT22;31343;47.520;19.144;2023-05-16T09:05:09;15.20;99.90
45619;DHT22;31343;47.520;19.144;2023-05-16T09:08:08;15.10;99.90
45619;DHT22;31343;47.520;19.144;2023-05-16T09:11:14;15.50;99.90
45619;DHT22;31343;47.520;19.144;2023-05-16T09:17:54;15.30;99.90
45619;DHT22;31343;47.520;19.144;2023-05-16T09:23:49;15.30;99.90
45619;DHT22;31343;47.520;19.144;2023-05-16T09:26:17;15.70;99.90
45619;DHT22;31343;47.520;19.144;2023-05-16T09:28:55;15.30;99.90
45619;DHT22;31343;47.520;19.144;2023-05-16T09:31:41;15.10;99.90
45619;DHT22;31343;47.520;19.144;2023-05-16T09:34:22;15.30;99.90
45619;DHT22;31343;47.520;19.144;2023-05-16T09:36:56;15.40;99.90
45619;DHT22;31343;47.520;19.144;2023-05-16T09:39:26;15.30;99.90
45619;DHT22;31343;47.520;19.144;2023-05-16T09:45:37;15.70;99.90
45619;DHT22;31343;47.520;19.144;2023-05-16T09:53:28;15.30;99.90
45619;DHT22;31343;47.520;19.144;2023-05-16T09:58:31;15.40;99.90
45619;DHT22;31343;47.520;19.144;2023-05-16T10:19:24;15.30;99.90
45619;DHT22;31343;47.520;19.144;2023-05-16T10:22:06;15.30;99.90
45619;DHT22;31343;47.520;19.144;2023-05-16T10:27:07;15.30;99.90
45619;DHT22;31343;47.520;19.144;2023-05-16T10:29:41;15.20;99.90
45619;DHT22;31343;47.520;19.144;2023-05-16T10:32:22;14.60;99.90
45619;DHT22;31343;47.520;19.144;2023-05-16T10:34:49;15.20;99.90
45619;DHT22;31343;47.520;19.144;2023-05-16T10:37:31;15.30;99.90
45619;DHT22;31343;47.520;19.144;2023-05-16T10:40:00;15.30;99.90
45619;DHT22;31343;47.520;19.144;2023-05-16T10:42:31;15.40;99.90
45619;DHT22;31343;47.520;19.144;2023-05-16T10:45:17;15.10;99.90
45619;DHT22;31343;47.520;19.144;2023-05-16T10:48:04;15.40;99.90
45619;DHT22;31343;47.520;19.144;2023-05-16T10:50:53;15.40;99.90
45619;DHT22;31343;47.520;19.144;2023-05-16T10:56:09;15.40;99.90
45619;DHT22;31343;47.520;19.144;2023-05-16T11:02:30;15.50;99.90
45619;DHT22;31343;47.520;19.144;2023-05-16T11:13:20;15.40;99.90
45619;DHT22;31343;47.520;19.144;2023-05-16T11:15:49;14.70;99.90
45619;DHT22;31343;47.520;19.144;2023-05-16T11:20:51;15.50;99.90
45619;DHT22;31343;47.520;19.144;2023-05-16T11:31:12;15.70;99.90
45619;DHT22;31343;47.520;19.144;2023-05-16T11:37:00;15.60;99.90
45619;DHT22;31343;47.520;19.144;2023-05-16T11:39:46;15.60;99.90
45619;DHT22;31343;47.520;19.144;2023-05-16T11:44:40;15.70;99.90
45619;DHT22;31343;47.520;19.144;2023-05-16T11:47:22;16.20;99.90
45619;DHT22;31343;47.520;19.144;2023-05-16T11:50:50;15.60;99.90
45619;DHT22;31343;47.520;19.144;2023-05-16T11:54:25;15.90;99.90
45619;DHT22;31343;47.520;19.144;2023-05-16T11:57:01;15.10;99.90
45619;DHT22;31343;47.520;19.144;2023-05-16T11:59:31;16.10;99.90
45619;DHT22;31343;47.520;19.144;2023-05-16T12:02:15;16.00;99.90
45619;DHT22;31343;47.520;19.144;2023-05-16T12:05:25;15.80;99.90
45619;DHT22;31343;47.520;19.144;2023-05-16T12:08:19;16.20;99.90
45619;DHT22;31343;47.520;19.144;2023-05-16T12:11:30;15.60;99.90
45619;DHT22;31343;47.520;19.144;2023-05-16T12:14:33;16.30;99.90
45619;DHT22;31343;47.520;19.144;2023-05-16T12:26:41;16.30;99.90
45619;DHT22;31343;47.520;19.144;2023-05-16T12:32:12;16.20;99.90
45619;DHT22;31343;47.520;19.144;2023-05-16T12:34:52;16.20;99.90
45619;DHT22;31343;47.520;19.144;2023-05-16T12:37:21;16.20;99.90
45619;DHT22;31343;47.520;19.144;2023-05-16T12:40:10;16.10;99.90
45619;DHT22;31343;47.520;19.144;2023-05-16T12:42:43;16.20;99.90
45619;DHT22;31343;47.520;19.144;2023-05-16T12:45:16;16.20;99.90
45619;DHT22;31343;47.520;19.144;2023-05-16T12:51:17;16.50;99.90
45619;DHT22;31343;47.520;19.144;2023-05-16T12:56:22;16.40;99.90
45619;DHT22;31343;47.520;19.144;2023-05-16T12:58:49;16.30;99.90
45619;DHT22;31343;47.520;19.144;2023-05-16T13:04:46;16.10;99.90
45619;DHT22;31343;47.520;19.144;2023-05-16T13:07:51;16.30;99.90
45619;DHT22;31343;47.520;19.144;2023-05-16T13:10:42;16.30;99.90
45619;DHT22;31343;47.520;19.144;2023-05-16T13:13:25;16.40;99.90
45619;DHT22;31343;47.520;19.144;2023-05-16T13:18:33;16.50;99.90
45619;DHT22;31343;47.520;19.144;2023-05-16T13:21:38;16.60;99.90
45619;DHT22;31343;47.520;19.144;2023-05-16T13:27:20;15.90;99.90
45619;DHT22;31343;47.520;19.144;2023-05-16T13:32:48;16.60;99.90
45619;DHT22;31343;47.520;19.144;2023-05-16T13:37:49;16.70;99.90
45619;DHT22;31343;47.520;19.144;2023-05-16T13:40:21;16.70;99.90
45619;DHT22;31343;47.520;19.144;2023-05-16T13:42:49;16.80;99.90
45619;DHT22;31343;47.520;19.144;2023-05-16T13:51:30;16.20;99.90
45619;DHT22;31343;47.520;19.144;2023-05-16T13:56:42;17.40;99.90
45619;DHT22;31343;47.520;19.144;2023-05-16T13:59:09;17.40;99.90
45619;DHT22;31343;47.520;19.144;2023-05-16T14:01:35;17.30;99.90
45619;DHT22;31343;47.520;19.144;2023-05-16T14:06:47;17.60;99.90
45619;DHT22;31343;47.520;19.144;2023-05-16T14:09:22;17.50;99.90
45619;DHT22;31343;47.520;19.144;2023-05-16T14:11:52;17.40;99.90
45619;DHT22;31343;47.520;19.144;2023-05-16T14:14:32;16.40;99.90
45619;DHT22;31343;47.520;19.144;2023-05-16T14:17:01;17.30;99.90
45619;DHT22;31343;47.520;19.144;2023-05-16T14:19:29;17.40;99.90
45619;DHT22;31343;47.520;19.144;2023-05-16T14:22:14;17.20;99.90
45619;DHT22;31343;47.520;19.144;2023-05-16T14:24:59;17.20;99.90
45619;DHT22;31343;47.520;19.144;2023-05-16T14:30:10;17.10;99.90
45619;DHT22;31343;47.520;19.144;2023-05-16T14:32:38;17.00;99.90
45619;DHT22;31343;47.520;19.144;2023-05-16T14:35:35;17.00;99.90
45619;DHT22;31343;47.520;19.144;2023-05-16T14:38:13;17.00;99.90
45619;DHT22;31343;47.520;19.144;2023-05-16T14:40:53;17.00;99.90
45619;DHT22;31343;47.520;19.144;2023-05-16T14:43:18;16.90;99.90
45619;DHT22;31343;47.520;19.144;2023-05-16T14:46:02;16.90;99.90
45619;DHT22;31343;47.520;19.144;2023-05-16T14:48:29;18.00;99.90
45619;DHT22;31343;47.520;19.144;2023-05-16T14:50:59;16.70;99.90
45619;DHT22;31343;47.520;19.144;2023-05-16T14:53:40;16.70;99.90
45619;DHT22;31343;47.520;19.144;2023-05-16T14:56:14;17.00;99.90
45619;DHT22;31343;47.520;19.144;2023-05-16T15:02:03;16.20;99.90
45619;DHT22;31343;47.520;19.144;2023-05-16T15:04:49;16.80;99.90
45619;DHT22;31343;47.520;19.144;2023-05-16T15:07:25;16.70;99.90
45619;DHT22;31343;47.520;19.144;2023-05-16T15:09:51;16.60;99.90
45619;DHT22;31343;47.520;19.144;2023-05-16T15:14:54;16.70;99.90
45619;DHT22;31343;47.520;19.144;2023-05-16T15:17:21;16.60;99.90
45619;DHT22;31343;47.520;19.144;2023-05-16T15:20:11;16.60;99.90
45619;DHT22;31343;47.520;19.144;2023-05-16T15:22:54;16.60;99.90
45619;DHT22;31343;47.520;19.144;2023-05-16T15:25:29;16.60;99.90
45619;DHT22;31343;47.520;19.144;2023-05-16T15:28:13;16.50;99.90
45619;DHT22;31343;47.520;19.144;2023-05-16T15:30:44;16.50;99.90
45619;DHT22;31343;47.520;19.144;2023-05-16T15:33:12;16.50;99.90
45619;DHT22;31343;47.520;19.144;2023-05-16T15:35:44;16.60;99.90
45619;DHT22;31343;47.520;19.144;2023-05-16T15:38:28;16.50;99.90
45619;DHT22;31343;47.520;19.144;2023-05-16T15:41:04;17.00;99.90
45619;DHT22;31343;47.520;19.144;2023-05-16T15:43:31;16.10;99.90
45619;DHT22;31343;47.520;19.144;2023-05-16T15:46:12;16.50;99.90
45619;DHT22;31343;47.520;19.144;2023-05-16T15:49:15;16.60;99.90
45619;DHT22;31343;47.520;19.144;2023-05-16T15:52:01;16.40;99.90
45619;DHT22;31343;47.520;19.144;2023-05-16T15:55:22;16.50;99.90
45619;DHT22;31343;47.520;19.144;2023-05-16T15:57:52;15.70;99.90
45619;DHT22;31343;47.520;19.144;2023-05-16T16:00:37;16.40;99.90
45619;DHT22;31343;47.520;19.144;2023-05-16T16:03:35;16.40;99.90
45619;DHT22;31343;47.520;19.144;2023-05-16T16:06:00;16.50;99.90
45619;DHT22;31343;47.520;19.144;2023-05-16T16:08:26;16.40;99.90
45619;DHT22;31343;47.520;19.144;2023-05-16T16:10:53;16.50;99.90
45619;DHT22;31343;47.520;19.144;2023-05-16T16:13:19;16.40;99.90
45619;DHT22;31343;47.520;19.144;2023-05-16T16:15:47;16.40;99.90
45619;DHT22;31343;47.520;19.144;2023-05-16T16:18:13;16.40;99.90
45619;DHT22;31343;47.520;19.144;2023-05-16T16:20:39;16.40;99.90
45619;DHT22;31343;47.520;19.144;2023-05-16T16:23:05;16.40;99.90
45619;DHT22;31343;47.520;19.144;2023-05-16T16:25:30;16.40;99.90
45619;DHT22;31343;47.520;19.144;2023-05-16T16:27:56;16.40;99.90
45619;DHT22;31343;47.520;19.144;2023-05-16T16:30:25;16.40;99.90
45619;DHT22;31343;47.520;19.144;2023-05-16T16:32:51;16.50;99.90
45619;DHT22;31343;47.520;19.144;2023-05-16T16:35:17;16.50;99.90
45619;DHT22;31343;47.520;19.144;2023-05-16T16:37:43;16.40;99.90
45619;DHT22;31343;47.520;19.144;2023-05-16T16:40:12;16.50;99.90
45619;DHT22;31343;47.520;19.144;2023-05-16T16:42:40;16.50;99.90
45619;DHT22;31343;47.520;19.144;2023-05-16T16:45:06;16.50;99.90
45619;DHT22;31343;47.520;19.144;2023-05-16T16:47:33;16.50;99.90
45619;DHT22;31343;47.520;19.144;2023-05-16T16:49:59;16.50;99.90
45619;DHT22;31343;47.520;19.144;2023-05-16T16:52:26;16.50;99.90
45619;DHT22;31343;47.520;19.144;2023-05-16T16:54:52;16.50;99.90
45619;DHT22;31343;47.520;19.144;2023-05-16T16:57:17;16.50;99.90
45619;DHT22;31343;47.520;19.144;2023-05-16T16:59:43;16.50;99.90
45619;DHT22;31343;47.520;19.144;2023-05-16T17:02:14;16.50;99.90
45619;DHT22;31343;47.520;19.144;2023-05-16T17:04:40;16.40;99.90
45619;DHT22;31343;47.520;19.144;2023-05-16T17:07:06;16.40;99.90
45619;DHT22;31343;47.520;19.144;2023-05-16T17:09:34;16.40;99.90
45619;DHT22;31343;47.520;19.144;2023-05-16T17:12:02;16.40;99.90
45619;DHT22;31343;47.520;19.144;2023-05-16T17:14:35;16.40;99.90
45619;DHT22;31343;47.520;19.144;2023-05-16T17:17:01;16.40;99.90
45619;DHT22;31343;47.520;19.144;2023-05-16T17:19:28;16.40;99.90
45619;DHT22;31343;47.520;19.144;2023-05-16T17:21:57;16.40;99.90
45619;DHT22;31343;47.520;19.144;2023-05-16T17:24:22;16.40;99.90
45619;DHT22;31343;47.520;19.144;2023-05-16T17:26:48;16.40;99.90
45619;DHT22;31343;47.520;19.144;2023-05-16T17:29:14;16.30;99.90
45619;DHT22;31343;47.520;19.144;2023-05-16T17:31:40;16.30;99.90
45619;DHT22;31343;47.520;19.144;2023-05-16T17:34:06;16.30;99.90
45619;DHT22;31343;47.520;19.144;2023-05-16T17:36:32;16.30;99.90
45619;DHT22;31343;47.520;19.144;2023-05-16T17:38:58;16.30;99.90
45619;DHT22;31343;47.520;19.144;2023-05-16T17:41:24;16.30;99.90
45619;DHT22;31343;47.520;19.144;2023-05-16T17:43:50;16.20;99.90
45619;DHT22;31343;47.520;19.144;2023-05-16T17:46:16;16.30;99.90
45619;DHT22;31343;47.520;19.144;2023-05-16T17:48:42;16.30;99.90
45619;DHT22;31343;47.520;19.144;2023-05-16T17:51:09;16.20;99.90
45619;DHT22;31343;47.520;19.144;2023-05-16T17:53:38;16.30;99.90
45619;DHT22;31343;47.520;19.144;2023-05-16T17:56:04;16.20;99.90
45619;DHT22;31343;47.520;19.144;2023-05-16T17:58:29;16.30;99.90
45619;DHT22;31343;47.520;19.144;2023-05-16T18:00:55;16.30;99.90
45619;DHT22;31343;47.520;19.144;2023-05-16T18:03:21;16.30;99.90
45619;DHT22;31343;47.520;19.144;2023-05-16T18:05:48;16.30;99.90
45619;DHT22;31343;47.520;19.144;2023-05-16T18:08:14;16.30;99.90
45619;DHT22;31343;47.520;19.144;2023-05-16T18:10:40;16.30;99.90
45619;DHT22;31343;47.520;19.144;2023-05-16T18:13:06;16.30;99.90
45619;DHT22;31343;47.520;19.144;2023-05-16T18:15:33;16.20;99.90
45619;DHT22;31343;47.520;19.144;2023-05-16T18:18:02;16.20;99.90
45619;DHT22;31343;47.520;19.144;2023-05-16T18:20:30;16.20;99.90
45619;DHT22;31343;47.520;19.144;2023-05-16T18:22:55;16.20;99.90
45619;DHT22;31343;47.520;19.144;2023-05-16T18:25:21;16.20;99.90
45619;DHT22;31343;47.520;19.144;2023-05-16T18:27:47;16.10;99.90
45619;DHT22;31343;47.520;19.144;2023-05-16T18:30:14;16.10;99.90
45619;DHT22;31343;47.520;19.144;2023-05-16T18:32:41;16.10;99.90
45619;DHT22;31343;47.520;19.144;2023-05-16T18:35:07;16.10;99.90
45619;DHT22;31343;47.520;19.144;2023-05-16T18:37:34;16.10;99.90
45619;DHT22;31343;47.520;19.144;2023-05-16T18:40:01;16.00;99.90
45619;DHT22;31343;47.520;19.144;2023-05-16T18:42:26;16.10;99.90
45619;DHT22;31343;47.520;19.144;2023-05-16T18:44:53;16.00;99.90
45619;DHT22;31343;47.520;19.144;2023-05-16T18:47:19;16.00;99.90
45619;DHT22;31343;47.520;19.144;2023-05-16T18:49:45;16.00;99.90
45619;DHT22;31343;47.520;19.144;2023-05-16T18:52:11;16.00;99.90
45619;DHT22;31343;47.520;19.144;2023-05-16T18:54:38;15.90;99.90
45619;DHT22;31343;47.520;19.144;2023-05-16T18:57:05;15.90;99.90
45619;DHT22;31343;47.520;19.144;2023-05-16T18:59:32;15.90;99.90
45619;DHT22;31343;47.520;19.144;2023-05-16T19:01:58;16.00;99.90
45619;DHT22;31343;47.520;19.144;2023-05-16T19:04:24;15.90;99.90
45619;DHT22;31343;47.520;19.144;2023-05-16T19:06:50;15.90;99.90
45619;DHT22;31343;47.520;19.144;2023-05-16T19:09:19;15.90;99.90
45619;DHT22;31343;47.520;19.144;2023-05-16T19:11:47;15.90;99.90
45619;DHT22;31343;47.520;19.144;2023-05-16T19:14:14;15.90;99.90
45619;DHT22;31343;47.520;19.144;2023-05-16T19:16:43;15.90;99.90
45619;DHT22;31343;47.520;19.144;2023-05-16T19:19:12;15.90;99.90
45619;DHT22;31343;47.520;19.144;2023-05-16T19:21:38;15.80;99.90
45619;DHT22;31343;47.520;19.144;2023-05-16T19:24:04;15.80;99.90
45619;DHT22;31343;47.520;19.144;2023-05-16T19:26:30;15.80;99.90
45619;DHT22;31343;47.520;19.144;2023-05-16T19:28:56;15.80;99.90
45619;DHT22;31343;47.520;19.144;2023-05-16T19:31:21;15.90;99.90
45619;DHT22;31343;47.520;19.144;2023-05-16T19:33:47;15.80;99.90
45619;DHT22;31343;47.520;19.144;2023-05-16T19:36:14;15.80;99.90
45619;DHT22;31343;47.520;19.144;2023-05-16T19:38:40;15.70;99.90
45619;DHT22;31343;47.520;19.144;2023-05-16T19:41:06;15.80;99.90
45619;DHT22;31343;47.520;19.144;2023-05-16T19:43:31;15.70;99.90
45619;DHT22;31343;47.520;19.144;2023-05-16T19:45:58;15.70;99.90
45619;DHT22;31343;47.520;19.144;2023-05-16T19:48:24;15.70;99.90
45619;DHT22;31343;47.520;19.144;2023-05-16T19:50:50;15.70;99.90
45619;DHT22;31343;47.520;19.144;2023-05-16T19:53:16;15.70;99.90
45619;DHT22;31343;47.520;19.144;2023-05-16T19:55:42;15.60;99.90
45619;DHT22;31343;47.520;19.144;2023-05-16T19:58:07;15.60;99.90
45619;DHT22;31343;47.520;19.144;2023-05-16T20:00:34;15.60;99.90
45619;DHT22;31343;47.520;19.144;2023-05-16T20:03:00;15.60;99.90
45619;DHT22;31343;47.520;19.144;2023-05-16T20:05:26;15.60;99.90
45619;DHT22;31343;47.520;19.144;2023-05-16T20:07:53;15.60;99.90
45619;DHT22;31343;47.520;19.144;2023-05-16T20:10:20;15.50;99.90
45619;DHT22;31343;47.520;19.144;2023-05-16T20:12:46;15.50;99.90
45619;DHT22;31343;47.520;19.144;2023-05-16T20:15:12;15.50;99.90
45619;DHT22;31343;47.520;19.144;2023-05-16T20:17:38;15.50;99.90
45619;DHT22;31343;47.520;19.144;2023-05-16T20:20:09;15.50;99.90
45619;DHT22;31343;47.520;19.144;2023-05-16T20:22:36;15.50;99.90
45619;DHT22;31343;47.520;19.144;2023-05-16T20:25:05;15.50;99.90
45619;DHT22;31343;47.520;19.144;2023-05-16T20:27:31;15.50;99.90
45619;DHT22;31343;47.520;19.144;2023-05-16T20:29:57;15.50;99.90
45619;DHT22;31343;47.520;19.144;2023-05-16T20:32:24;15.50;99.90
45619;DHT22;31343;47.520;19.144;2023-05-16T20:34:50;15.50;99.90
45619;DHT22;31343;47.520;19.144;2023-05-16T20:37:15;15.50;99.90
45619;DHT22;31343;47.520;19.144;2023-05-16T20:39:41;15.50;99.90
45619;DHT22;31343;47.520;19.144;2023-05-16T20:42:07;15.50;99.90
45619;DHT22;31343;47.520;19.144;2023-05-16T20:44:40;15.50;99.90
45619;DHT22;31343;47.520;19.144;2023-05-16T20:47:06;15.50;99.90
45619;DHT22;31343;47.520;19.144;2023-05-16T20:49:33;15.50;99.90
45619;DHT22;31343;47.520;19.144;2023-05-16T20:52:02;15.50;99.90
45619;DHT22;31343;47.520;19.144;2023-05-16T20:54:29;15.50;99.90
45619;DHT22;31343;47.520;19.144;2023-05-16T20:56:54;15.50;99.90
45619;DHT22;31343;47.520;19.144;2023-05-16T20:59:20;15.50;99.90
45619;DHT22;31343;47.520;19.144;2023-05-16T21:01:46;15.50;99.90
45619;DHT22;31343;47.520;19.144;2023-05-16T21:04:12;15.50;99.90
45619;DHT22;31343;47.520;19.144;2023-05-16T21:06:38;15.50;99.90
45619;DHT22;31343;47.520;19.144;2023-05-16T21:09:03;15.50;99.90
45619;DHT22;31343;47.520;19.144;2023-05-16T21:11:29;15.50;99.90
45619;DHT22;31343;47.520;19.144;2023-05-16T21:13:57;15.40;99.90
45619;DHT22;31343;47.520;19.144;2023-05-16T21:16:23;15.40;99.90
45619;DHT22;31343;47.520;19.144;2023-05-16T21:18:49;15.40;99.90
45619;DHT22;31343;47.520;19.144;2023-05-16T21:21:15;15.50;99.90
45619;DHT22;31343;47.520;19.144;2023-05-16T21:23:41;15.40;99.90
45619;DHT22;31343;47.520;19.144;2023-05-16T21:26:06;15.40;99.90
45619;DHT22;31343;47.520;19.144;2023-05-16T21:28:33;15.40;99.90
45619;DHT22;31343;47.520;19.144;2023-05-16T21:30:59;15.40;99.90
45619;DHT22;31343;47.520;19.144;2023-05-16T21:33:24;15.40;99.90
45619;DHT22;31343;47.520;19.144;2023-05-16T21:35:50;15.40;99.90
45619;DHT22;31343;47.520;19.144;2023-05-16T21:38:17;15.40;99.90
45619;DHT22;31343;47.520;19.144;2023-05-16T21:40:43;15.40;99.90
45619;DHT22;31343;47.520;19.144;2023-05-16T21:43:09;15.50;99.90
45619;DHT22;31343;47.520;19.144;2023-05-16T21:45:34;15.40;99.90
45619;DHT22;31343;47.520;19.144;2023-05-16T21:48:01;15.50;99.90
45619;DHT22;31343;47.520;19.144;2023-05-16T21:50:26;15.40;99.90
45619;DHT22;31343;47.520;19.144;2023-05-16T21:52:52;15.40;99.90
45619;DHT22;31343;47.520;19.144;2023-05-16T21:55:18;15.50;99.90
45619;DHT22;31343;47.520;19.144;2023-05-16T21:57:44;15.50;99.90
45619;DHT22;31343;47.520;19.144;2023-05-16T22:00:13;15.40;99.90
45619;DHT22;31343;47.520;19.144;2023-05-16T22:02:39;15.50;99.90
45619;DHT22;31343;47.520;19.144;2023-05-16T22:05:05;15.40;99.90
45619;DHT22;31343;47.520;19.144;2023-05-16T22:07:31;15.40;99.90
45619;DHT22;31343;47.520;19.144;2023-05-16T22:09:57;15.40;99.90
45619;DHT22;31343;47.520;19.144;2023-05-16T22:12:24;15.40;99.90
45619;DHT22;31343;47.520;19.144;2023-05-16T22:14:50;15.40;99.90
45619;DHT22;31343;47.520;19.144;2023-05-16T22:17:17;15.40;99.90
45619;DHT22;31343;47.520;19.144;2023-05-16T22:19:43;15.30;99.90
45619;DHT22;31343;47.520;19.144;2023-05-16T22:22:11;15.30;99.90
45619;DHT22;31343;47.520;19.144;2023-05-16T22:24:37;15.30;99.90
45619;DHT22;31343;47.520;19.144;2023-05-16T22:27:03;15.30;99.90
45619;DHT22;31343;47.520;19.144;2023-05-16T22:29:28;15.40;99.90
45619;DHT22;31343;47.520;19.144;2023-05-16T22:31:55;15.30;99.90
45619;DHT22;31343;47.520;19.144;2023-05-16T22:34:21;15.30;99.90
45619;DHT22;31343;47.520;19.144;2023-05-16T22:36:47;15.30;99.90
45619;DHT22;31343;47.520;19.144;2023-05-16T22:39:12;15.30;99.90